Quinsam — VY6800 — position and weather

sailwx.info

Track history (hours):
 
Tides and Currents Weather Stations Pressure Air Temp Water Temp Dewpoint Dewpoint Depression Visibility Wind Speed Wind Dir Waves Ship Positions

Quinsam

Last reported at 2016-Dec-03 13:27 UTC. Time now 2016-Dec-03 13:45 UTC.
Position N 49°11' W 123°52'.

Length 88 m; draft 1.5 m.

Type: Ship. MMSI: 316001266.

Date/timePositionNaut miles runAvg speedWind from/ knotsBaromVisibWave heightAir tempDewpointWater temp
2016-Dec-03 13:27N 49°11' W 123°52'0 0.0
2016-Dec-03 12:24N 49°11' W 123°52'0 0.0
2016-Dec-03 11:30N 49°11' W 123°52'0 0.0
2016-Dec-03 10:24N 49°11' W 123°52'0 0.0
2016-Dec-03 09:24N 49°11' W 123°52'0 0.0
2016-Dec-03 08:06N 49°11' W 123°52'0 0.0
2016-Dec-03 07:27N 49°11' W 123°52'1 0.6
2016-Dec-03 06:33N 49°11' W 123°52'0 0.1
2016-Dec-03 05:33N 49°11' W 123°53'0 0.5
2016-Dec-03 04:33N 49°11' W 123°53'0 0.0
2016-Dec-03 03:33N 49°10' W 123°53'1 0.9
2016-Dec-03 02:33N 49°11' W 123°52'0 0.3
2016-Dec-03 01:29N 49°11' W 123°52'2 2.3
2016-Dec-03 00:33N 49°10' W 123°55'1 0.8
2016-Dec-02 23:33N 49°10' W 123°56'1 1.0
2016-Dec-02 22:33N 49°10' W 123°54'2 1.9
2016-Dec-02 21:32N 49°11' W 123°52'0 0.0
2016-Dec-02 20:32N 49°11' W 123°52'2 1.7
2016-Dec-02 19:33N 49°10' W 123°54'1 1.3
2016-Dec-02 18:33N 49°10' W 123°56'1 0.8
2016-Dec-02 17:33N 49°10' W 123°55'2 2.0
2016-Dec-02 16:33N 49°11' W 123°52'0 0.0
2016-Dec-02 15:32N 49°11' W 123°52'2 2.3
2016-Dec-02 14:33N 49°10' W 123°55'2 1.9
2016-Dec-02 13:24N 49°11' W 123°52'0 0.0
2016-Dec-02 11:21N 49°11' W 123°52'0 0.0
2016-Dec-02 10:30N 49°11' W 123°52'0 0.0
2016-Dec-02 09:21N 49°11' W 123°52'0 0.0
2016-Dec-02 07:27N 49°11' W 123°52'1 0.8
2016-Dec-02 06:33N 49°11' W 123°53'0 0.4
2016-Dec-02 05:34N 49°11' W 123°52'1 1.1
2016-Dec-02 04:33N 49°10' W 123°54'1 1.3
2016-Dec-02 03:33N 49°11' W 123°52'0 0.1
2016-Dec-02 02:31N 49°11' W 123°52'0 0.0
2016-Dec-02 01:32N 49°11' W 123°52'2 1.8
2016-Dec-02 00:33N 49°10' W 123°54'1 1.1
2016-Dec-01 23:31N 49°10' W 123°56'1 0.7
2016-Dec-01 22:33N 49°10' W 123°55'2 2.2
2016-Dec-01 21:33N 49°11' W 123°52'0 0.0
2016-Dec-01 20:33N 49°11' W 123°52'2 2.3
2016-Dec-01 19:33N 49°10' W 123°55'1 0.5
2016-Dec-01 18:26N 49°10' W 123°56'1 0.3
2016-Dec-01 15:06N 49°10' W 123°54'1 0.0
2016-Nov-30 16:26N 49°10' W 123°53'  
2016-Nov-24 21:33N 49°10' W 123°55'2 2.2
2016-Nov-24 20:33N 49°11' W 123°52'1 1.4
2016-Nov-24 19:33N 49°10' W 123°54'1 1.4
2016-Nov-24 18:30N 49°10' W 123°56'3 0.8
2016-Nov-24 15:10N 49°11' W 123°52'2 3.8
2016-Nov-24 14:34N 49°10' W 123°55'3 2.6
2016-Nov-24 13:33N 49°11' W 123°52'0 0.0
2016-Nov-24 12:30N 49°11' W 123°52'0 0.0
2016-Nov-24 11:33N 49°11' W 123°52'0 0.0
2016-Nov-24 10:33N 49°11' W 123°52'0 0.0
2016-Nov-24 09:33N 49°11' W 123°52'0 0.0
2016-Nov-24 08:33N 49°11' W 123°52'0 0.0
2016-Nov-24 07:33N 49°11' W 123°52'3 2.8
2016-Nov-24 06:30N 49°10' W 123°56'2 2.6
2016-Nov-24 05:34N 49°11' W 123°52'1 0.7
2016-Nov-24 04:34N 49°10' W 123°53'1 0.8
2016-Nov-24 03:34N 49°11' W 123°52'0 0.4
2016-Nov-24 02:34N 49°11' W 123°52'0 0.0
2016-Nov-24 01:34N 49°11' W 123°52'2 2.0
2016-Nov-24 00:34N 49°10' W 123°54'1 0.9
2016-Nov-23 23:33N 49°10' W 123°56'1 1.1
2016-Nov-23 22:34N 49°10' W 123°54'2 1.8
2016-Nov-23 21:34N 49°11' W 123°52'0 0.0
2016-Nov-23 20:34N 49°11' W 123°52'2 2.3
2016-Nov-23 19:34N 49°10' W 123°55'1 0.5
2016-Nov-23 18:25N 49°10' W 123°56'1 1.1
2016-Nov-23 17:34N 49°10' W 123°54'2 1.9
2016-Nov-23 16:34N 49°11' W 123°52'0 0.0
2016-Nov-23 15:34N 49°11' W 123°52'3 2.6
2016-Nov-23 14:33N 49°10' W 123°55'3 2.6
2016-Nov-23 13:31N 49°11' W 123°52'  
Track history (hours):
 
Tides and Currents Weather Stations Pressure Air Temp Water Temp Dewpoint Dewpoint Depression Visibility Wind Speed Wind Dir Waves Ship Positions

Quinsam

Last reported at 2016-Dec-03 13:27 UTC. Time now 2016-Dec-03 13:45 UTC.
Position N 49°11' W 123°52'.

Length 88 m; draft 1.5 m.

Type: Ship. MMSI: 316001266.

Date/timePositionNaut miles runAvg speedWind from/ knotsBaromVisibWave heightAir tempDewpointWater temp
2016-Dec-03 13:27N 49°11' W 123°52'0 0.0
2016-Dec-03 12:24N 49°11' W 123°52'0 0.0
2016-Dec-03 11:30N 49°11' W 123°52'0 0.0
2016-Dec-03 10:24N 49°11' W 123°52'0 0.0
2016-Dec-03 09:24N 49°11' W 123°52'0 0.0
2016-Dec-03 08:06N 49°11' W 123°52'0 0.0
2016-Dec-03 07:27N 49°11' W 123°52'1 0.6
2016-Dec-03 06:33N 49°11' W 123°52'0 0.1
2016-Dec-03 05:33N 49°11' W 123°53'0 0.5
2016-Dec-03 04:33N 49°11' W 123°53'0 0.0
2016-Dec-03 03:33N 49°10' W 123°53'1 0.9
2016-Dec-03 02:33N 49°11' W 123°52'0 0.3
2016-Dec-03 01:29N 49°11' W 123°52'2 2.3
2016-Dec-03 00:33N 49°10' W 123°55'1 0.8
2016-Dec-02 23:33N 49°10' W 123°56'1 1.0
2016-Dec-02 22:33N 49°10' W 123°54'2 1.9
2016-Dec-02 21:32N 49°11' W 123°52'0 0.0
2016-Dec-02 20:32N 49°11' W 123°52'2 1.7
2016-Dec-02 19:33N 49°10' W 123°54'1 1.3
2016-Dec-02 18:33N 49°10' W 123°56'1 0.8
2016-Dec-02 17:33N 49°10' W 123°55'2 2.0
2016-Dec-02 16:33N 49°11' W 123°52'0 0.0
2016-Dec-02 15:32N 49°11' W 123°52'2 2.3
2016-Dec-02 14:33N 49°10' W 123°55'2 1.9
2016-Dec-02 13:24N 49°11' W 123°52'0 0.0
2016-Dec-02 11:21N 49°11' W 123°52'0 0.0
2016-Dec-02 10:30N 49°11' W 123°52'0 0.0
2016-Dec-02 09:21N 49°11' W 123°52'0 0.0
2016-Dec-02 07:27N 49°11' W 123°52'1 0.8
2016-Dec-02 06:33N 49°11' W 123°53'0 0.4
2016-Dec-02 05:34N 49°11' W 123°52'1 1.1
2016-Dec-02 04:33N 49°10' W 123°54'1 1.3
2016-Dec-02 03:33N 49°11' W 123°52'0 0.1
2016-Dec-02 02:31N 49°11' W 123°52'0 0.0
2016-Dec-02 01:32N 49°11' W 123°52'2 1.8
2016-Dec-02 00:33N 49°10' W 123°54'1 1.1
2016-Dec-01 23:31N 49°10' W 123°56'1 0.7
2016-Dec-01 22:33N 49°10' W 123°55'2 2.2
2016-Dec-01 21:33N 49°11' W 123°52'0 0.0
2016-Dec-01 20:33N 49°11' W 123°52'2 2.3
2016-Dec-01 19:33N 49°10' W 123°55'1 0.5
2016-Dec-01 18:26N 49°10' W 123°56'1 0.3
2016-Dec-01 15:06N 49°10' W 123°54'1 0.0
2016-Nov-30 16:26N 49°10' W 123°53'  
2016-Nov-24 21:33N 49°10' W 123°55'2 2.2
2016-Nov-24 20:33N 49°11' W 123°52'1 1.4
2016-Nov-24 19:33N 49°10' W 123°54'1 1.4
2016-Nov-24 18:30N 49°10' W 123°56'3 0.8
2016-Nov-24 15:10N 49°11' W 123°52'2 3.8
2016-Nov-24 14:34N 49°10' W 123°55'3 2.6
2016-Nov-24 13:33N 49°11' W 123°52'0 0.0
2016-Nov-24 12:30N 49°11' W 123°52'0 0.0
2016-Nov-24 11:33N 49°11' W 123°52'0 0.0
2016-Nov-24 10:33N 49°11' W 123°52'0 0.0
2016-Nov-24 09:33N 49°11' W 123°52'0 0.0
2016-Nov-24 08:33N 49°11' W 123°52'0 0.0
2016-Nov-24 07:33N 49°11' W 123°52'3 2.8
2016-Nov-24 06:30N 49°10' W 123°56'2 2.6
2016-Nov-24 05:34N 49°11' W 123°52'1 0.7
2016-Nov-24 04:34N 49°10' W 123°53'1 0.8
2016-Nov-24 03:34N 49°11' W 123°52'0 0.4
2016-Nov-24 02:34N 49°11' W 123°52'0 0.0
2016-Nov-24 01:34N 49°11' W 123°52'2 2.0
2016-Nov-24 00:34N 49°10' W 123°54'1 0.9
2016-Nov-23 23:33N 49°10' W 123°56'1 1.1
2016-Nov-23 22:34N 49°10' W 123°54'2 1.8
2016-Nov-23 21:34N 49°11' W 123°52'0 0.0
2016-Nov-23 20:34N 49°11' W 123°52'2 2.3
2016-Nov-23 19:34N 49°10' W 123°55'1 0.5
2016-Nov-23 18:25N 49°10' W 123°56'1 1.1
2016-Nov-23 17:34N 49°10' W 123°54'2 1.9
2016-Nov-23 16:34N 49°11' W 123°52'0 0.0
2016-Nov-23 15:34N 49°11' W 123°52'3 2.6
2016-Nov-23 14:33N 49°10' W 123°55'3 2.6
2016-Nov-23 13:31N 49°11' W 123°52'  

Dump ship's entire track history